Time;durP1;ratioP1;P1;durP2;ratioP2;P2;SDS_P1;SDS_P2;PMS_P1;PMS_P2;Temp;Humidity;BMP_temperature;BMP_pressure;BME280_temperature;BME280_humidity;BME280_pressure;Samples;Min_cycle;Max_cycle;Signal;HPM_P1;HPM_P2
2023/03/07 00:02:15;;;;;;;18.08;10.75;;;21.70;60.90;;;;;;5039261;28;20042;-72
2023/03/07 00:04:45;;;;;;;16.25;10.77;;;21.80;60.80;;;;;;5042364;28;20033;-72
2023/03/07 00:07:12;;;;;;;20.55;10.82;;;21.70;60.50;;;;;;5054235;28;20025;-72
2023/03/07 00:09:38;;;;;;;19.20;11.75;;;21.70;60.30;;;;;;5049130;28;20048;-72
2023/03/07 00:12:04;;;;;;;22.75;13.57;;;21.70;60.70;;;;;;5050688;28;20226;-72
2023/03/07 00:14:30;;;;;;;27.25;14.02;;;21.70;60.40;;;;;;5039146;28;20633;-72
2023/03/07 00:16:56;;;;;;;26.75;13.20;;;21.70;60.50;;;;;;5009336;28;20045;-72
2023/03/07 00:19:22;;;;;;;22.50;13.15;;;21.70;60.60;;;;;;5024072;28;20033;-72
2023/03/07 00:21:48;;;;;;;21.25;12.05;;;21.70;60.90;;;;;;5034284;28;20032;-72
2023/03/07 00:24:14;;;;;;;20.30;11.38;;;21.60;61.00;;;;;;5032508;28;20029;-72
2023/03/07 00:26:40;;;;;;;22.98;12.15;;;21.60;61.00;;;;;;5053542;28;20500;-72
2023/03/07 00:29:08;;;;;;;20.27;11.55;;;21.70;61.40;;;;;;5038982;28;20045;-72
2023/03/07 00:31:35;;;;;;;25.63;11.82;;;21.50;61.40;;;;;;5045577;28;20205;-72
2023/03/07 00:34:01;;;;;;;18.80;11.35;;;21.60;61.70;;;;;;5025169;28;20164;-72
2023/03/07 00:36:27;;;;;;;19.20;10.30;;;21.60;61.70;;;;;;5028801;28;20049;-72
2023/03/07 00:38:53;;;;;;;22.63;11.55;;;21.40;61.60;;;;;;5039696;28;20132;-72
2023/03/07 00:41:23;;;;;;;20.05;10.90;;;21.60;61.70;;;;;;5048519;28;20036;-72
2023/03/07 00:43:49;;;;;;;23.83;11.65;;;21.60;61.70;;;;;;5015989;28;20419;-72
2023/03/07 00:46:16;;;;;;;27.42;12.95;;;21.60;61.70;;;;;;5046351;28;20029;-72
2023/03/07 00:48:43;;;;;;;22.23;10.98;;;21.60;61.80;;;;;;5043066;28;20026;-72
2023/03/07 00:51:12;;;;;;;21.85;12.05;;;21.70;62.00;;;;;;5044658;28;20037;-72
2023/03/07 00:53:39;;;;;;;19.17;11.75;;;21.60;61.80;;;;;;5037068;28;20182;-72
2023/03/07 00:56:16;;;;;;;19.45;10.43;;;21.50;61.80;;;;;;5038983;28;20033;-72
2023/03/07 00:58:43;;;;;;;16.65;10.02;;;21.50;61.80;;;;;;5039233;28;20032;-72
2023/03/07 01:01:11;;;;;;;22.17;11.18;;;21.40;61.90;;;;;;5043204;28;20029;-72
2023/03/07 01:03:38;;;;;;;22.48;11.02;;;21.50;62.10;;;;;;5048145;28;20461;-72
2023/03/07 01:06:06;;;;;;;18.00;10.05;;;21.40;62.10;;;;;;5048810;28;20064;-72
2023/03/07 01:08:33;;;;;;;20.00;10.25;;;21.30;62.10;;;;;;5050657;28;20040;-72
2023/03/07 01:11:01;;;;;;;25.88;12.88;;;21.30;62.30;;;;;;5039098;28;20061;-72
2023/03/07 01:13:29;;;;;;;22.40;13.02;;;21.30;62.30;;;;;;5049605;28;20056;-72
2023/03/07 01:15:55;;;;;;;28.35;13.85;;;21.20;62.10;;;;;;5044965;28;20056;-72
2023/03/07 01:18:21;;;;;;;28.00;14.82;;;21.30;62.20;;;;;;5043704;28;20040;-72
2023/03/07 01:20:47;;;;;;;28.85;14.05;;;21.20;62.00;;;;;;5032095;28;20032;-72
2023/03/07 01:23:14;;;;;;;30.98;15.73;;;21.20;62.10;;;;;;5051222;28;20033;-72
2023/03/07 01:25:41;;;;;;;27.30;16.25;;;21.30;62.20;;;;;;5046904;28;20032;-72
2023/03/07 01:28:12;;;;;;;32.35;15.80;;;21.20;62.30;;;;;;5045094;28;20029;-72
2023/03/07 01:30:38;;;;;;;37.95;16.48;;;21.10;62.40;;;;;;5043416;28;20401;-72
2023/03/07 01:33:04;;;;;;;40.72;19.08;;;21.20;62.50;;;;;;5051074;28;20048;-72
2023/03/07 01:35:36;;;;;;;38.35;17.48;;;21.20;62.50;;;;;;5048419;28;20040;-72
2023/03/07 01:38:02;;;;;;;30.02;17.23;;;21.20;62.40;;;;;;5046021;28;20034;-72
2023/03/07 01:40:29;;;;;;;35.20;18.80;;;21.20;62.40;;;;;;5048381;28;20068;-72
2023/03/07 01:43:23;;;;;;;41.45;19.17;;;21.10;62.40;;;;;;5047844;28;20033;-72
2023/03/07 01:46:21;;;;;;;40.72;18.35;;;21.10;62.40;;;;;;5039524;28;20478;-72
2023/03/07 01:49:00;;;;;;;37.05;18.42;;;21.20;62.40;;;;;;4997190;28;20506;-72
2023/03/07 01:51:28;;;;;;;38.38;19.70;;;21.20;62.50;;;;;;4992299;28;20511;-72
2023/03/07 01:53:57;;;;;;;36.00;19.30;;;21.20;62.50;;;;;;4996728;28;20053;-72
2023/03/07 01:56:23;;;;;;;38.28;18.77;;;21.20;62.30;;;;;;4991550;28;20034;-72
2023/03/07 01:58:50;;;;;;;37.40;16.33;;;21.20;62.40;;;;;;5007639;28;20529;-72
2023/03/07 02:01:17;;;;;;;32.22;14.93;;;21.00;62.30;;;;;;4982892;28;20030;-72
2023/03/07 02:03:57;;;;;;;23.55;12.85;;;21.20;62.40;;;;;;5007563;28;20040;-72
2023/03/07 02:06:26;;;;;;;26.58;12.05;;;21.20;62.30;;;;;;4993669;28;20050;-72
2023/03/07 02:08:54;;;;;;;19.80;9.60;;;21.00;62.30;;;;;;4992337;28;20046;-72
2023/03/07 02:11:20;;;;;;;25.13;11.73;;;21.20;62.40;;;;;;4991191;28;20068;-72
2023/03/07 02:13:46;;;;;;;22.85;11.05;;;21.20;61.80;;;;;;4988334;28;20157;-72
2023/03/07 02:16:12;;;;;;;23.17;9.98;;;21.20;61.90;;;;;;5000349;28;20120;-72
2023/03/07 02:18:43;;;;;;;19.50;9.65;;;21.00;61.80;;;;;;4990466;28;20093;-72
2023/03/07 02:21:32;;;;;;;18.98;9.00;;;21.00;62.00;;;;;;4984743;28;20034;-72
2023/03/07 02:24:24;;;;;;;16.40;8.90;;;21.00;61.90;;;;;;5007369;28;20056;-72
2023/03/07 02:26:52;;;;;;;17.23;9.75;;;21.00;62.00;;;;;;5028098;28;20541;-72
2023/03/07 02:29:19;;;;;;;15.20;9.10;;;21.00;62.10;;;;;;5046642;28;20182;-72
2023/03/07 02:31:46;;;;;;;19.17;9.13;;;21.10;62.30;;;;;;5025169;28;20131;-72
2023/03/07 02:34:24;;;;;;;20.25;9.00;;;21.10;62.00;;;;;;5013788;28;20070;-72
2023/03/07 02:37:12;;;;;;;21.98;10.18;;;21.10;62.00;;;;;;5019270;28;20061;-72
2023/03/07 02:39:40;;;;;;;24.13;10.95;;;21.10;62.00;;;;;;5027729;28;20054;-72
2023/03/07 02:42:11;;;;;;;18.95;9.65;;;21.20;62.00;;;;;;5041746;28;20025;-72
2023/03/07 02:44:46;;;;;;;17.88;9.10;;;21.10;62.00;;;;;;5042711;28;20037;-72
2023/03/07 02:47:14;;;;;;;19.63;9.35;;;21.20;62.20;;;;;;5026626;28;20040;-72
2023/03/07 02:49:40;;;;;;;15.68;9.18;;;21.20;61.90;;;;;;5048267;28;20049;-72
2023/03/07 02:52:06;;;;;;;15.65;9.02;;;21.10;61.80;;;;;;5045371;28;20037;-73
2023/03/07 02:54:33;;;;;;;18.95;9.32;;;21.10;61.80;;;;;;5047712;28;20094;-72
2023/03/07 02:56:59;;;;;;;14.55;8.15;;;21.10;61.70;;;;;;5041936;28;20451;-72
2023/03/07 02:59:25;;;;;;;13.13;8.15;;;21.10;61.80;;;;;;5045946;28;20070;-72
2023/03/07 03:01:51;;;;;;;17.27;9.05;;;21.20;61.60;;;;;;5046333;28;20028;-72
2023/03/07 03:04:17;;;;;;;21.23;9.65;;;21.00;61.60;;;;;;5045983;28;20033;-72
2023/03/07 03:06:43;;;;;;;19.20;9.73;;;21.20;61.50;;;;;;5043851;28;20060;-72
2023/03/07 03:09:09;;;;;;;18.50;9.43;;;21.00;61.60;;;;;;5046543;28;20052;-72
2023/03/07 03:11:35;;;;;;;18.08;9.10;;;21.10;61.80;;;;;;5049439;28;20037;-72
2023/03/07 03:14:01;;;;;;;14.77;9.07;;;21.00;61.60;;;;;;5045106;28;20068;-72
2023/03/07 03:16:28;;;;;;;22.35;9.88;;;21.00;61.50;;;;;;5041589;28;20037;-72
2023/03/07 03:18:54;;;;;;;17.70;9.32;;;21.00;61.50;;;;;;5042731;28;20033;-72
2023/03/07 03:21:20;;;;;;;18.95;9.70;;;21.00;61.60;;;;;;5047880;28;20052;-72
2023/03/07 03:23:46;;;;;;;15.13;8.50;;;21.00;61.70;;;;;;5044848;28;20381;-72
2023/03/07 03:26:12;;;;;;;19.23;9.98;;;21.00;61.60;;;;;;5036490;28;20029;-72
2023/03/07 03:28:39;;;;;;;19.60;8.98;;;20.90;61.50;;;;;;5034555;28;20025;-72
2023/03/07 03:31:09;;;;;;;14.98;8.80;;;20.80;61.50;;;;;;5042189;28;20033;-72
2023/03/07 03:33:35;;;;;;;18.50;8.65;;;21.00;61.70;;;;;;5022620;28;20077;-72
2023/03/07 03:36:10;;;;;;;18.13;9.45;;;20.90;61.90;;;;;;5046056;28;20044;-72
2023/03/07 03:38:36;;;;;;;18.75;8.98;;;20.90;61.70;;;;;;5032508;28;20056;-72
2023/03/07 03:41:09;;;;;;;19.33;8.70;;;20.90;61.80;;;;;;5048170;28;20094;-72
2023/03/07 03:43:36;;;;;;;;;;;21.00;61.30;;;;;;5044698;28;20067;-72
2023/03/07 03:46:03;;;;;;;17.70;9.52;;;21.00;61.30;;;;;;5040711;28;19952;-73
2023/03/07 03:48:29;;;;;;;22.80;9.73;;;20.90;61.40;;;;;;5013261;28;20120;-72
2023/03/07 03:51:10;;;;;;;20.48;10.82;;;20.90;61.40;;;;;;5047122;28;20527;-72
2023/03/07 03:53:38;;;;;;;17.73;10.98;;;20.90;61.50;;;;;;5044188;28;20057;-72
2023/03/07 03:56:10;;;;;;;26.40;12.10;;;21.00;61.50;;;;;;5044089;28;20045;-72
2023/03/07 03:58:37;;;;;;;21.67;10.33;;;21.00;61.60;;;;;;5027903;28;20061;-72
2023/03/07 04:01:08;;;;;;;24.33;11.05;;;21.00;61.40;;;;;;5046311;28;20055;-72
2023/03/07 04:03:39;;;;;;;19.70;10.50;;;21.10;61.50;;;;;;5046361;28;20602;-72
2023/03/07 04:06:11;;;;;;;20.58;11.48;;;21.00;61.30;;;;;;5044501;28;20107;-72
2023/03/07 04:08:39;;;;;;;25.52;12.45;;;20.90;61.40;;;;;;5031257;28;20033;-72
2023/03/07 04:11:06;;;;;;;30.20;14.70;;;20.90;61.40;;;;;;5053646;28;20064;-73
2023/03/07 04:13:34;;;;;;;27.42;12.45;;;21.00;61.50;;;;;;5047351;28;20079;-72
2023/03/07 04:16:01;;;;;;;27.73;12.65;;;20.90;61.50;;;;;;5040576;28;20045;-72
2023/03/07 04:18:27;;;;;;;39.88;13.50;;;20.90;61.40;;;;;;5027571;28;20496;-73
2023/03/07 04:20:54;;;;;;;36.70;14.43;;;20.90;61.70;;;;;;5083590;28;20067;-72
2023/03/07 04:23:21;;;;;;;33.08;14.43;;;20.90;61.70;;;;;;5033080;28;20041;-72
2023/03/07 04:25:55;;;;;;;32.25;13.95;;;20.80;61.80;;;;;;5030929;28;20132;-72
2023/03/07 04:28:24;;;;;;;32.22;13.15;;;20.70;61.70;;;;;;5016289;28;20084;-72
2023/03/07 04:30:51;;;;;;;27.80;12.80;;;20.90;62.10;;;;;;5043632;28;20036;-72
2023/03/07 04:33:18;;;;;;;24.85;10.75;;;20.90;61.70;;;;;;5033750;28;20041;-72
2023/03/07 04:35:47;;;;;;;31.38;13.50;;;21.00;60.90;;;;;;5049405;28;20037;-72
2023/03/07 04:38:14;;;;;;;22.08;11.95;;;20.90;61.10;;;;;;5050697;28;20098;-72
2023/03/07 04:40:40;;;;;;;22.65;11.82;;;21.00;61.10;;;;;;5032159;28;20503;-72
2023/03/07 04:43:06;;;;;;;32.65;13.60;;;21.10;60.90;;;;;;5034338;28;20025;-72
2023/03/07 04:45:38;;;;;;;22.10;11.07;;;21.20;60.70;;;;;;5024491;28;20436;-72
2023/03/07 04:48:04;;;;;;;27.13;12.88;;;21.30;60.90;;;;;;5037916;28;20037;-72
2023/03/07 04:50:31;;;;;;;25.17;12.43;;;21.20;60.40;;;;;;5003034;28;20060;-72
2023/03/07 04:52:57;;;;;;;21.33;11.00;;;21.10;60.60;;;;;;5030782;28;20076;-72
2023/03/07 04:55:24;;;;;;;22.67;11.25;;;21.00;60.80;;;;;;5024648;28;20075;-72
2023/03/07 04:57:50;;;;;;;22.65;13.30;;;21.10;61.00;;;;;;5033479;28;20509;-72
2023/03/07 05:00:18;;;;;;;28.23;15.32;;;21.10;61.00;;;;;;5042136;28;20460;-72
2023/03/07 05:02:47;;;;;;;31.75;14.50;;;21.10;61.40;;;;;;5035255;28;20359;-72
2023/03/07 05:05:14;;;;;;;25.73;12.18;;;21.00;61.80;;;;;;5018809;28;20497;-72
2023/03/07 05:07:42;;;;;;;27.85;12.70;;;21.00;61.70;;;;;;5026579;28;20024;-72
2023/03/07 05:10:09;;;;;;;25.63;12.02;;;21.00;61.50;;;;;;5046287;28;20405;-72
2023/03/07 05:12:35;;;;;;;27.20;12.65;;;21.00;61.50;;;;;;5052892;28;20032;-72
2023/03/07 05:15:03;;;;;;;21.83;11.80;;;21.10;61.50;;;;;;5035502;28;20493;-72
2023/03/07 05:17:30;;;;;;;23.45;11.50;;;21.10;61.40;;;;;;5048812;28;20061;-72
2023/03/07 05:19:56;;;;;;;21.75;10.73;;;21.10;61.40;;;;;;5045964;28;20024;-72
2023/03/07 05:22:23;;;;;;;18.73;10.30;;;21.20;61.70;;;;;;5052680;28;20041;-72
2023/03/07 05:24:49;;;;;;;23.38;11.05;;;21.30;61.50;;;;;;5044976;28;20531;-72
2023/03/07 05:27:15;;;;;;;20.55;10.45;;;21.20;61.20;;;;;;5031276;28;20041;-72
2023/03/07 05:29:41;;;;;;;22.55;11.30;;;21.30;61.40;;;;;;5037435;28;20041;-72
2023/03/07 05:32:07;;;;;;;21.08;11.02;;;21.30;61.50;;;;;;5043115;28;20174;-72
2023/03/07 05:34:33;;;;;;;22.45;11.35;;;21.30;61.50;;;;;;5044270;28;20037;-73
2023/03/07 05:37:00;;;;;;;24.27;12.25;;;21.40;61.50;;;;;;5028475;28;20037;-72
2023/03/07 05:39:26;;;;;;;23.25;11.95;;;21.40;61.50;;;;;;5031042;28;20486;-72
2023/03/07 05:41:53;;;;;;;27.95;12.00;;;21.40;61.60;;;;;;5040835;28;20030;-73
2023/03/07 05:44:19;;;;;;;21.08;10.98;;;21.50;61.40;;;;;;5042174;28;20385;-72
2023/03/07 05:46:45;;;;;;;20.90;11.77;;;21.40;61.40;;;;;;5036948;28;20025;-72
2023/03/07 05:49:11;;;;;;;26.60;12.23;;;21.60;61.30;;;;;;5031255;28;20030;-72
2023/03/07 05:51:37;;;;;;;27.92;12.48;;;21.50;61.20;;;;;;5032391;28;20039;-72
2023/03/07 05:54:03;;;;;;;30.50;13.38;;;21.50;61.30;;;;;;5030815;28;20045;-72
2023/03/07 05:56:29;;;;;;;26.80;14.00;;;21.60;61.30;;;;;;5036490;28;20132;-72
2023/03/07 05:58:56;;;;;;;31.45;13.80;;;21.70;61.50;;;;;;5032836;28;20039;-72
2023/03/07 06:01:22;;;;;;;39.47;16.45;;;21.60;61.40;;;;;;5034518;28;20411;-72
2023/03/07 06:03:48;;;;;;;33.35;15.82;;;21.50;61.40;;;;;;5033236;28;20025;-72
2023/03/07 06:06:14;;;;;;;33.00;14.75;;;21.60;61.50;;;;;;5022892;28;20045;-72
2023/03/07 06:08:40;;;;;;;35.50;14.98;;;21.50;61.50;;;;;;5045746;28;20048;-72
2023/03/07 06:11:08;;;;;;;30.17;16.10;;;21.50;61.50;;;;;;5033710;28;20057;-73
2023/03/07 06:13:36;;;;;;;30.15;16.40;;;21.60;61.40;;;;;;5041072;28;20030;-71
2023/03/07 06:16:02;;;;;;;36.13;17.25;;;21.60;61.30;;;;;;5032516;28;20033;-71
2023/03/07 06:18:28;;;;;;;42.10;18.27;;;21.60;60.70;;;;;;5036465;28;20087;-72
2023/03/07 06:20:57;;;;;;;38.15;18.83;;;21.60;60.90;;;;;;5014026;28;20659;-75
2023/03/07 06:23:26;;;;;;;33.28;16.23;;;21.60;54.00;;;;;;5031804;28;20049;-73
2023/03/07 06:25:52;;;;;;;30.42;16.00;;;21.70;49.50;;;;;;5024463;28;20033;-75
2023/03/07 06:28:19;;;;;;;26.77;14.88;;;21.60;49.10;;;;;;5030824;28;20065;-74
2023/03/07 06:30:45;;;;;;;21.05;12.40;;;21.70;49.80;;;;;;5028527;28;20215;-74
2023/03/07 06:33:12;;;;;;;25.08;10.75;;;21.80;47.60;;;;;;5048148;28;20043;-74
2023/03/07 06:35:42;;;;;;;22.45;13.48;;;21.70;48.70;;;;;;5027576;28;20525;-73
2023/03/07 06:38:10;;;;;;;26.23;12.85;;;21.80;48.80;;;;;;4965425;28;20413;-74
2023/03/07 06:40:37;;;;;;;26.65;12.07;;;21.80;49.30;;;;;;4987351;28;20124;-76
2023/03/07 06:43:03;;;;;;;18.83;11.88;;;21.80;49.40;;;;;;4988538;28;20054;-74
2023/03/07 06:45:29;;;;;;;25.50;13.95;;;21.80;49.20;;;;;;4973380;28;20058;-71
2023/03/07 06:47:55;;;;;;;29.63;13.00;;;21.80;47.50;;;;;;4985011;28;20474;-73
2023/03/07 06:50:21;;;;;;;22.10;10.43;;;21.90;59.10;;;;;;4998636;28;20528;-74
2023/03/07 06:52:50;;;;;;;14.32;8.18;;;22.20;59.60;;;;;;4978477;28;20062;-72
2023/03/07 06:55:17;;;;;;;15.90;8.15;;;22.20;59.10;;;;;;4977861;28;20046;-72
2023/03/07 06:57:44;;;;;;;22.17;11.15;;;22.40;58.50;;;;;;4984026;28;20034;-71
2023/03/07 07:00:11;;;;;;;23.35;14.23;;;22.20;58.60;;;;;;4930414;28;20138;-70
2023/03/07 07:02:37;;;;;;;30.45;14.10;;;22.50;58.20;;;;;;4997555;28;20050;-74
2023/03/07 07:05:04;;;;;;;24.63;13.27;;;22.30;58.10;;;;;;5000269;28;20043;-71
2023/03/07 07:07:30;;;;;;;25.23;11.43;;;22.40;58.70;;;;;;5009932;28;20043;-71
2023/03/07 07:09:57;;;;;;;23.30;12.13;;;22.10;58.30;;;;;;5019425;28;20062;-71
2023/03/07 07:12:23;;;;;;;24.30;14.63;;;22.40;58.10;;;;;;5006253;28;20147;-70
2023/03/07 07:14:49;;;;;;;22.35;12.43;;;22.20;58.10;;;;;;5029260;28;20041;-69
2023/03/07 07:17:15;;;;;;;19.88;9.07;;;22.20;60.00;;;;;;5040699;28;20040;-70
2023/03/07 07:19:41;;;;;;;25.50;11.75;;;22.40;63.50;;;;;;5063529;28;20033;-71
2023/03/07 07:22:10;;;;;;;19.25;10.07;;;22.40;61.50;;;;;;5048977;28;20040;-71
2023/03/07 07:24:39;;;;;;;15.18;7.95;;;22.40;61.00;;;;;;5042873;28;20033;-74
2023/03/07 07:27:06;;;;;;;22.52;9.40;;;22.40;59.40;;;;;;5043011;28;20493;-71
2023/03/07 07:29:32;;;;;;;17.60;8.55;;;22.30;58.40;;;;;;5042938;28;20036;-72
2023/03/07 07:31:58;;;;;;;18.33;9.68;;;22.60;57.30;;;;;;5028400;28;20447;-73
2023/03/07 07:34:24;;;;;;;16.27;9.57;;;22.50;56.90;;;;;;5043714;28;20025;-72
2023/03/07 07:36:51;;;;;;;11.10;6.47;;;22.40;55.40;;;;;;5029790;28;20421;-71
2023/03/07 07:39:18;;;;;;;16.83;8.52;;;22.50;56.50;;;;;;5018477;28;20104;-73
2023/03/07 07:41:46;;;;;;;15.68;8.48;;;22.60;56.50;;;;;;5042552;28;20033;-69
2023/03/07 07:44:14;;;;;;;18.02;10.00;;;22.70;56.60;;;;;;5049272;28;20036;-69
2023/03/07 07:46:52;;;;;;;11.10;6.82;;;22.40;56.30;;;;;;5037400;28;20032;-71
2023/03/07 07:49:17;;;;;;;12.70;8.00;;;22.60;56.80;;;;;;5053220;28;20044;-69
2023/03/07 07:51:44;;;;;;;19.00;9.02;;;22.60;56.80;;;;;;5055029;28;20163;-71
2023/03/07 07:54:10;;;;;;;16.50;7.68;;;22.70;56.80;;;;;;5075339;28;20476;-71
2023/03/07 07:56:35;;;;;;;15.55;7.75;;;22.70;57.00;;;;;;5076645;28;20506;-71
2023/03/07 07:59:02;;;;;;;13.90;8.60;;;22.60;56.40;;;;;;5079246;28;20075;-71
2023/03/07 08:01:28;;;;;;;16.05;10.77;;;22.70;56.20;;;;;;5057861;28;20131;-72
2023/03/07 08:03:53;;;;;;;19.48;11.02;;;22.80;55.70;;;;;;5017285;28;20131;-71
2023/03/07 08:06:23;;;;;;;18.90;10.02;;;22.70;55.30;;;;;;5064944;28;20614;-69
2023/03/07 08:08:49;;;;;;;17.90;10.40;;;22.60;55.90;;;;;;5082152;28;20071;-70
2023/03/07 08:11:16;;;;;;;18.15;8.00;;;22.70;56.70;;;;;;5076589;28;20433;-69
2023/03/07 08:13:42;;;;;;;15.45;8.02;;;22.60;57.00;;;;;;5082182;28;20037;-69
2023/03/07 08:16:10;;;;;;;13.60;8.25;;;22.70;57.00;;;;;;5083152;28;20120;-69
2023/03/07 08:18:36;;;;;;;15.15;8.18;;;22.80;57.00;;;;;;5068012;28;20037;-69
2023/03/07 08:21:02;;;;;;;18.17;8.57;;;22.90;57.10;;;;;;5046984;28;20089;-69
2023/03/07 08:23:28;;;;;;;15.70;8.95;;;22.70;56.80;;;;;;5085578;28;20106;-69
2023/03/07 08:25:54;;;;;;;17.30;8.85;;;22.70;56.90;;;;;;5066106;28;20049;-70
2023/03/07 08:28:20;;;;;;;17.85;7.40;;;22.80;57.00;;;;;;5023544;28;20073;-71
2023/03/07 08:30:46;;;;;;;12.82;7.45;;;22.70;57.00;;;;;;5035630;28;20119;-70
2023/03/07 08:33:11;;;;;;;13.20;6.65;;;22.70;57.20;;;;;;5052019;28;20384;-69
2023/03/07 08:35:38;;;;;;;14.00;6.97;;;22.70;57.30;;;;;;5028366;28;20022;-71
2023/03/07 08:38:04;;;;;;;12.55;6.80;;;22.80;56.70;;;;;;5033551;28;20503;-70
2023/03/07 08:40:30;;;;;;;13.13;7.40;;;22.60;57.20;;;;;;5033388;28;20064;-70
2023/03/07 08:42:58;;;;;;;15.80;7.70;;;22.80;57.30;;;;;;5033288;28;20113;-72
2023/03/07 08:45:24;;;;;;;17.88;7.63;;;22.70;57.30;;;;;;5031949;28;20040;-71
2023/03/07 08:47:54;;;;;;;15.32;9.18;;;22.80;57.20;;;;;;5032405;28;20038;-72
2023/03/07 08:50:26;;;;;;;12.07;8.02;;;22.80;55.80;;;;;;5032838;28;20041;-71
2023/03/07 08:52:52;;;;;;;19.60;9.88;;;22.70;57.50;;;;;;5032982;28;20044;-71
2023/03/07 08:55:19;;;;;;;16.02;8.88;;;22.80;53.20;;;;;;5032299;28;20037;-72
2023/03/07 08:57:46;;;;;;;16.42;9.98;;;22.80;57.70;;;;;;5033395;28;20029;-72
2023/03/07 09:00:13;;;;;;;21.50;10.85;;;22.60;57.70;;;;;;5033088;28;20124;-69
2023/03/07 09:02:39;;;;;;;19.48;9.93;;;22.60;57.50;;;;;;5032865;28;20033;-70
2023/03/07 09:05:05;;;;;;;19.15;9.50;;;22.60;57.70;;;;;;5032049;28;20036;-70
2023/03/07 09:07:31;;;;;;;14.57;8.27;;;22.70;58.50;;;;;;5032301;28;20167;-70
2023/03/07 09:09:57;;;;;;;15.80;7.55;;;22.60;58.40;;;;;;5032966;28;20770;-70
2023/03/07 09:12:23;;;;;;;15.43;7.43;;;22.60;58.30;;;;;;5030390;28;20088;-70
2023/03/07 09:14:52;;;;;;;11.57;8.30;;;22.60;57.50;;;;;;5046056;28;20454;-70
2023/03/07 09:17:18;;;;;;;10.60;6.85;;;22.70;58.40;;;;;;5033037;28;20112;-70
2023/03/07 09:19:44;;;;;;;8.73;4.75;;;22.60;58.60;;;;;;5032952;28;20039;-70
2023/03/07 09:22:10;;;;;;;9.65;5.10;;;22.60;58.50;;;;;;5030892;28;20411;-70
2023/03/07 09:24:36;;;;;;;11.05;5.82;;;22.70;58.40;;;;;;5026203;28;20053;-69
2023/03/07 09:27:02;;;;;;;8.25;3.78;;;22.80;58.40;;;;;;5019138;28;20072;-70
2023/03/07 09:29:28;;;;;;;5.38;3.50;;;22.90;58.40;;;;;;5032278;28;20037;-70
2023/03/07 09:31:54;;;;;;;7.72;3.88;;;22.80;58.40;;;;;;5032571;28;20044;-70
2023/03/07 09:34:20;;;;;;;6.35;3.85;;;22.80;58.30;;;;;;5030530;28;20044;-70
2023/03/07 09:36:48;;;;;;;8.07;3.28;;;22.80;58.20;;;;;;5045815;28;20107;-70
2023/03/07 09:39:15;;;;;;;6.65;3.47;;;22.80;58.30;;;;;;5032461;28;20052;-70
2023/03/07 09:42:00;;;;;;;4.07;3.10;;;22.90;58.30;;;;;;5032552;28;20029;-70
2023/03/07 09:44:44;;;;;;;5.85;3.67;;;22.90;58.30;;;;;;5030047;28;20385;-70
2023/03/07 09:47:48;;;;;;;5.25;3.10;;;22.80;58.30;;;;;;5011308;28;20493;-70
2023/03/07 09:50:41;;;;;;;4.63;2.70;;;22.80;57.50;;;;;;5012593;28;20049;-70
2023/03/07 09:53:51;;;;;;;4.60;3.25;;;22.80;58.30;;;;;;5023887;28;20116;-70
2023/03/07 09:56:56;;;;;;;4.57;2.53;;;22.80;58.30;;;;;;5009706;28;20107;-70
2023/03/07 09:59:37;;;;;;;3.40;2.22;;;22.70;58.10;;;;;;4951181;29;20043;-70
2023/03/07 10:02:23;;;;;;;7.05;2.90;;;22.60;58.20;;;;;;4966797;28;20197;-70
2023/03/07 10:05:13;;;;;;;3.63;2.40;;;22.70;57.60;;;;;;4951099;29;20114;-70
2023/03/07 10:07:39;;;;;;;4.78;3.00;;;22.80;58.50;;;;;;4966168;28;20098;-70
2023/03/07 10:10:13;;;;;;;3.28;2.97;;;22.80;57.90;;;;;;4950671;29;20100;-70
2023/03/07 10:12:41;;;;;;;4.07;2.55;;;22.80;57.60;;;;;;4921262;29;20050;-70
2023/03/07 10:15:24;;;;;;;4.70;2.72;;;22.70;58.50;;;;;;4951070;28;20051;-70
2023/03/07 10:17:59;;;;;;;8.02;2.83;;;22.90;58.60;;;;;;4950380;29;20039;-70
2023/03/07 10:20:52;;;;;;;3.78;2.42;;;22.80;58.20;;;;;;4950247;29;20051;-70
2023/03/07 10:23:24;;;;;;;4.82;2.83;;;22.80;58.20;;;;;;4950670;29;20423;-70
2023/03/07 10:26:02;;;;;;;6.85;4.50;;;22.70;57.90;;;;;;4950871;29;20385;-70
2023/03/07 10:28:31;;;;;;;11.95;6.15;;;22.90;57.10;;;;;;4970116;28;20042;-70
2023/03/07 10:31:22;;;;;;;11.05;6.07;;;22.90;58.20;;;;;;4972062;28;20461;-71
2023/03/07 10:33:50;;;;;;;8.93;4.85;;;22.80;58.40;;;;;;4987401;28;20082;-70
2023/03/07 10:36:42;;;;;;;11.57;5.95;;;22.70;57.80;;;;;;5030346;28;20049;-70
2023/03/07 10:39:26;;;;;;;11.93;6.25;;;22.70;58.10;;;;;;5043585;28;20075;-71
2023/03/07 10:41:53;;;;;;;8.30;4.90;;;22.70;56.30;;;;;;5025333;28;20497;-70
2023/03/07 10:44:20;;;;;;;7.63;5.03;;;22.70;47.20;;;;;;5029560;28;20053;-72
2023/03/07 10:46:56;;;;;;;7.72;4.07;;;22.80;51.20;;;;;;5029887;28;20041;-70
2023/03/07 10:49:30;;;;;;;6.43;4.68;;;22.90;52.20;;;;;;5025486;28;20120;-72
2023/03/07 10:52:34;;;;;;;11.40;7.38;;;22.90;49.60;;;;;;5016520;28;20068;-74
2023/03/07 10:55:18;;;;;;;;;;;23.10;46.00;;;;;;5039456;28;20033;-73
2023/03/07 10:57:44;;;;;;;6.93;4.72;;;23.00;44.10;;;;;;5038645;28;19916;-72
2023/03/07 11:00:16;;;;;;;6.63;4.97;;;22.90;41.20;;;;;;5032282;28;20459;-73
2023/03/07 11:02:44;;;;;;;9.48;5.60;;;22.90;41.70;;;;;;5011450;28;20069;-75
2023/03/07 11:05:31;;;;;;;7.80;5.07;;;22.90;42.80;;;;;;5017018;28;20032;-72
2023/03/07 11:07:58;;;;;;;11.40;6.10;;;22.90;48.70;;;;;;5033346;28;20087;-71
2023/03/07 11:10:39;;;;;;;13.82;7.07;;;23.10;51.50;;;;;;5031624;28;20081;-72
2023/03/07 11:13:15;;;;;;;10.57;5.82;;;23.30;41.40;;;;;;5050390;28;20029;-74
2023/03/07 11:15:43;;;;;;;9.60;5.65;;;23.20;42.30;;;;;;5074494;28;20034;-73
2023/03/07 11:18:33;;;;;;;10.13;4.45;;;23.30;41.60;;;;;;5043992;28;20044;-72
2023/03/07 11:20:59;;;;;;;9.57;5.65;;;23.20;40.20;;;;;;5034972;28;20037;-74
2023/03/07 11:23:30;;;;;;;11.63;5.35;;;23.10;40.70;;;;;;5055021;28;20099;-73
2023/03/07 11:26:17;;;;;;;9.35;5.90;;;23.10;42.10;;;;;;5029135;28;20147;-73
2023/03/07 11:28:43;;;;;;;6.80;4.97;;;23.00;41.30;;;;;;5027934;28;20042;-73
2023/03/07 11:31:27;;;;;;;8.68;6.60;;;23.00;40.60;;;;;;5024561;28;20509;-73
2023/03/07 11:34:23;;;;;;;8.70;5.70;;;23.00;41.10;;;;;;5013076;28;20151;-72
2023/03/07 11:37:06;;;;;;;8.35;6.20;;;22.90;40.40;;;;;;5023904;28;20116;-73
2023/03/07 11:39:58;;;;;;;8.40;5.40;;;22.90;40.30;;;;;;5014411;28;20041;-74
2023/03/07 11:42:31;;;;;;;7.15;5.05;;;22.80;40.60;;;;;;5017120;28;20478;-75
2023/03/07 11:45:23;;;;;;;;;;;23.00;53.30;;;;;;5028850;28;20171;-75
2023/03/07 11:47:55;;;;;;;6.70;4.82;;;22.90;53.90;;;;;;5014238;28;19979;-70
2023/03/07 11:50:25;;;;;;;10.70;5.95;;;23.00;54.80;;;;;;5016720;28;20197;-71
2023/03/07 11:53:32;;;;;;;10.73;6.15;;;23.00;55.40;;;;;;4996245;28;20038;-72
2023/03/07 11:56:09;;;;;;;8.02;5.43;;;22.90;56.20;;;;;;5006870;28;20576;-72
2023/03/07 11:58:44;;;;;;;11.25;6.40;;;23.10;57.00;;;;;;5010445;28;20041;-73
2023/03/07 12:01:39;;;;;;;13.18;7.20;;;23.10;57.50;;;;;;5022415;28;20592;-72
2023/03/07 12:04:42;;;;;;;9.48;6.00;;;23.10;58.00;;;;;;5005864;28;20035;-73
2023/03/07 12:07:14;;;;;;;8.77;5.22;;;23.00;57.50;;;;;;5025529;28;20026;-73
2023/03/07 12:09:47;;;;;;;8.75;5.25;;;23.00;57.30;;;;;;5028712;28;20040;-72
2023/03/07 12:12:28;;;;;;;6.25;4.32;;;23.00;57.70;;;;;;5049312;28;20029;-72
2023/03/07 12:15:12;;;;;;;15.52;5.35;;;23.00;57.80;;;;;;5050395;28;20053;-72
2023/03/07 12:17:56;;;;;;;9.80;5.03;;;22.90;57.40;;;;;;5052121;28;20485;-74
2023/03/07 12:20:25;;;;;;;10.77;6.47;;;23.10;58.20;;;;;;5046540;28;20140;-72
2023/03/07 12:23:03;;;;;;;8.63;5.30;;;23.00;58.20;;;;;;5053734;28;20045;-71
2023/03/07 12:25:43;;;;;;;9.05;5.78;;;23.00;58.70;;;;;;5034703;28;20050;-72
2023/03/07 12:28:27;;;;;;;10.75;4.47;;;22.90;58.80;;;;;;5028156;28;20037;-72
2023/03/07 12:31:21;;;;;;;6.57;3.92;;;22.90;58.60;;;;;;5033928;28;20080;-71
2023/03/07 12:34:01;;;;;;;6.65;4.20;;;23.00;58.30;;;;;;5029770;28;20041;-72
2023/03/07 12:36:42;;;;;;;7.80;4.55;;;23.00;58.40;;;;;;5034546;28;20037;-74
2023/03/07 12:39:26;;;;;;;8.60;3.60;;;22.90;57.80;;;;;;5032903;28;20037;-72
2023/03/07 12:42:14;;;;;;;6.72;3.83;;;23.00;58.60;;;;;;5032861;28;20041;-73
2023/03/07 12:44:42;;;;;;;7.68;4.53;;;23.00;60.10;;;;;;5022721;28;20026;-74
2023/03/07 12:47:26;;;;;;;5.35;3.80;;;23.00;62.40;;;;;;5032221;28;20046;-72
2023/03/07 12:50:04;;;;;;;5.70;3.70;;;23.00;62.30;;;;;;5042079;28;20041;-75
2023/03/07 12:52:46;;;;;;;8.35;4.40;;;23.10;63.70;;;;;;5045386;28;20086;-73
2023/03/07 12:55:23;;;;;;;7.93;3.80;;;23.00;63.70;;;;;;5030176;28;20025;-72